createdAt,value
2018-06-18T00:00:01.382Z,3.80
2018-06-18T00:02:29.704Z,4.10
2018-06-18T00:04:58.013Z,3.70
2018-06-18T00:07:26.321Z,3.87
2018-06-18T00:09:54.612Z,3.83
2018-06-18T00:12:22.919Z,4.13
2018-06-18T00:14:51.209Z,4.20
2018-06-18T00:17:19.529Z,4.10
2018-06-18T00:19:47.841Z,4.17
2018-06-18T00:22:17.471Z,3.80
2018-06-18T00:24:46.763Z,4.20
2018-06-18T00:27:15.080Z,3.77
2018-06-18T00:29:43.362Z,4.10
2018-06-18T00:32:11.915Z,4.00
2018-06-18T00:34:40.776Z,3.57
2018-06-18T00:37:09.220Z,3.80
2018-06-18T00:39:37.566Z,3.50
2018-06-18T00:42:06.132Z,3.63
2018-06-18T00:44:34.432Z,3.53
2018-06-18T00:47:02.776Z,3.90
2018-06-18T00:49:31.062Z,3.87
2018-06-18T00:51:59.384Z,4.00
2018-06-18T00:54:27.682Z,4.37
2018-06-18T00:56:55.989Z,3.83
2018-06-18T00:59:24.316Z,4.37
2018-06-18T01:01:52.605Z,4.43
2018-06-18T01:04:20.965Z,4.00
2018-06-18T01:06:49.285Z,3.80
2018-06-18T01:09:17.592Z,3.90
2018-06-18T01:11:45.885Z,3.60
2018-06-18T01:14:14.205Z,3.90
2018-06-18T01:16:42.493Z,4.17
2018-06-18T01:19:10.804Z,4.67
2018-06-18T01:21:39.105Z,4.67
2018-06-18T01:24:25.022Z,4.70
2018-06-18T01:26:53.332Z,4.60
2018-06-18T01:29:21.641Z,4.90
2018-06-18T01:31:49.980Z,4.33
2018-06-18T01:34:21.025Z,4.60
2018-06-18T01:36:49.332Z,4.17
2018-06-18T01:39:17.646Z,4.27
2018-06-18T01:41:45.924Z,4.47
2018-06-18T01:44:14.234Z,4.47
2018-06-18T01:46:42.548Z,4.30
2018-06-18T01:49:10.889Z,4.40
2018-06-18T01:51:39.278Z,4.50
2018-06-18T01:54:07.601Z,4.73
2018-06-18T01:56:36.105Z,5.00
2018-06-18T01:59:04.563Z,4.67
2018-06-18T02:01:32.869Z,4.90
2018-06-18T02:04:01.205Z,5.20
2018-06-18T02:06:29.508Z,4.93
2018-06-18T02:08:58.803Z,5.23
2018-06-18T02:11:27.100Z,5.33
2018-06-18T02:13:55.442Z,5.23
2018-06-18T02:16:23.749Z,5.20
2018-06-18T02:18:52.064Z,4.50
2018-06-18T02:21:20.369Z,4.77
2018-06-18T02:23:48.668Z,4.63
2018-06-18T02:26:16.976Z,4.57
2018-06-18T02:28:50.517Z,4.67
2018-06-18T02:31:24.260Z,4.63
2018-06-18T02:33:58.070Z,4.77
2018-06-18T02:36:31.721Z,4.73
2018-06-18T02:39:05.407Z,5.10
2018-06-18T02:41:33.697Z,3.80
2018-06-18T02:44:02.037Z,4.10
2018-06-18T02:46:30.468Z,4.47
2018-06-18T02:48:58.821Z,4.30
2018-06-18T02:51:27.350Z,4.20
2018-06-18T02:53:55.681Z,4.30
2018-06-18T02:56:33.248Z,4.40
2018-06-18T02:59:01.589Z,4.20
2018-06-18T03:01:29.942Z,4.33
2018-06-18T03:03:58.253Z,4.47
2018-06-18T03:06:26.544Z,4.23
2018-06-18T03:08:54.844Z,3.90
2018-06-18T03:11:23.137Z,4.57
2018-06-18T03:13:51.489Z,4.90
2018-06-18T03:16:19.816Z,4.40
2018-06-18T03:18:53.604Z,4.10
2018-06-18T03:21:27.436Z,4.20
2018-06-18T03:24:01.190Z,4.40
2018-06-18T03:26:34.987Z,4.90
2018-06-18T03:29:08.749Z,5.30
2018-06-18T03:31:37.066Z,4.90
2018-06-18T03:34:05.641Z,5.33
2018-06-18T03:36:33.949Z,5.63
2018-06-18T03:39:02.265Z,5.13
2018-06-18T03:41:30.554Z,4.97
2018-06-18T03:44:04.127Z,4.97
2018-06-18T03:46:35.387Z,5.00
2018-06-18T03:49:03.709Z,4.77
2018-06-18T03:51:31.992Z,5.13
2018-06-18T03:54:00.293Z,5.43
2018-06-18T03:56:28.334Z,5.20
2018-06-18T03:58:56.629Z,4.93
2018-06-18T04:02:45.508Z,5.17
2018-06-18T04:05:19.126Z,5.10
2018-06-18T04:07:52.732Z,5.30
2018-06-18T04:10:26.367Z,5.70
2018-06-18T04:12:54.698Z,5.60
2018-06-18T04:15:23.001Z,5.20
2018-06-18T04:17:51.293Z,5.30
2018-06-18T04:20:19.625Z,5.90
2018-06-18T04:22:47.920Z,6.10
2018-06-18T04:25:16.261Z,5.83
2018-06-18T04:27:44.787Z,4.77
2018-06-18T04:30:13.177Z,5.07
2018-06-18T04:32:41.497Z,5.93
2018-06-18T04:35:11.037Z,6.00
2018-06-18T04:37:39.373Z,5.47
2018-06-18T04:40:08.328Z,5.63
2018-06-18T04:43:40.985Z,5.60
2018-06-18T04:46:14.473Z,5.50
2018-06-18T04:48:49.102Z,5.93
2018-06-18T04:51:17.503Z,5.37
2018-06-18T04:53:45.829Z,5.53
2018-06-18T04:56:13.878Z,5.63
2018-06-18T04:58:42.172Z,5.10
2018-06-18T05:01:30.280Z,5.50
2018-06-18T05:03:58.569Z,4.70
2018-06-18T05:06:28.384Z,5.43
2018-06-18T05:09:06.949Z,4.70
2018-06-18T05:11:35.276Z,4.60
2018-06-18T05:14:04.265Z,4.50
2018-06-18T05:16:32.585Z,4.80
2018-06-18T05:19:00.878Z,5.03
2018-06-18T05:21:29.216Z,5.17
2018-06-18T05:23:57.541Z,5.03
2018-06-18T05:26:25.864Z,4.97
2018-06-18T05:28:54.152Z,4.50
2018-06-18T05:31:22.485Z,4.23
2018-06-18T05:33:57.333Z,4.40
2018-06-18T05:36:25.650Z,4.67
2018-06-18T05:38:53.956Z,4.17
2018-06-18T05:41:22.296Z,4.37
2018-06-18T05:43:50.597Z,3.90
2018-06-18T05:46:18.915Z,3.57
2018-06-18T05:48:47.213Z,4.33
2018-06-18T05:51:15.548Z,4.20
2018-06-18T05:53:43.897Z,4.60
2018-06-18T05:56:12.208Z,3.80
2018-06-18T05:58:40.501Z,3.60
2018-06-18T06:01:08.830Z,3.70
2018-06-18T06:03:37.136Z,3.37
2018-06-18T06:06:05.626Z,3.33
2018-06-18T06:08:33.896Z,3.63
2018-06-18T06:11:02.249Z,3.87
2018-06-18T06:13:30.648Z,3.77
2018-06-18T06:15:58.953Z,3.03
2018-06-18T06:18:27.244Z,3.60
2018-06-18T06:21:00.941Z,3.60
2018-06-18T06:23:29.378Z,3.87
2018-06-18T06:25:57.706Z,3.93
2018-06-18T06:28:26.005Z,3.30
2018-06-18T06:30:54.642Z,3.30
2018-06-18T06:33:24.271Z,3.30
2018-06-18T06:35:53.145Z,3.30
2018-06-18T06:38:21.441Z,3.77
2018-06-18T06:40:49.848Z,3.03
2018-06-18T06:43:18.231Z,2.83
2018-06-18T06:45:46.552Z,3.30
2018-06-18T06:48:14.878Z,3.20
2018-06-18T06:50:43.183Z,2.73
2018-06-18T06:53:11.493Z,2.83
2018-06-18T06:55:39.816Z,2.83
2018-06-18T06:58:08.229Z,2.50
2018-06-18T07:00:36.576Z,2.53
2018-06-18T07:03:05.107Z,2.40
2018-06-18T07:05:33.470Z,2.40
2018-06-18T07:08:01.866Z,2.20
2018-06-18T07:10:30.812Z,2.77
2018-06-18T07:12:59.155Z,2.33
2018-06-18T07:15:28.149Z,2.63
2018-06-18T07:17:56.494Z,2.57
2018-06-18T07:20:24.793Z,2.80
2018-06-18T07:22:53.071Z,2.47
2018-06-18T07:25:21.379Z,2.70
2018-06-18T07:27:49.708Z,2.80
2018-06-18T07:30:18.101Z,2.30
2018-06-18T07:32:46.393Z,2.33
2018-06-18T07:35:14.712Z,2.10
2018-06-18T07:37:43.030Z,2.17
2018-06-18T07:40:11.352Z,2.40
2018-06-18T07:42:39.671Z,2.80
2018-06-18T07:45:08.010Z,2.80
2018-06-18T07:47:36.331Z,2.23
2018-06-18T07:50:04.698Z,2.70
2018-06-18T07:52:33.031Z,2.20
2018-06-18T07:55:01.421Z,2.60
2018-06-18T07:57:29.783Z,2.27
2018-06-18T07:59:58.056Z,2.40
2018-06-18T08:02:26.393Z,2.37
2018-06-18T08:04:54.681Z,2.60
2018-06-18T08:07:22.997Z,2.63
2018-06-18T08:09:51.348Z,2.40
2018-06-18T08:12:19.637Z,2.33
2018-06-18T08:14:47.961Z,2.00
2018-06-18T08:17:16.298Z,2.40
2018-06-18T08:19:44.741Z,2.10
2018-06-18T08:22:13.777Z,2.10
2018-06-18T08:24:42.930Z,2.10
2018-06-18T08:27:11.309Z,2.27
2018-06-18T08:29:39.731Z,1.80
2018-06-18T08:32:08.057Z,2.17
2018-06-18T08:34:36.400Z,2.40
2018-06-18T08:37:04.713Z,2.00
2018-06-18T08:39:33.060Z,2.20
2018-06-18T08:42:01.411Z,2.40
2018-06-18T08:44:29.739Z,2.40
2018-06-18T08:46:58.041Z,2.03
2018-06-18T08:49:26.386Z,2.20
2018-06-18T08:52:00.171Z,2.30
2018-06-18T08:54:33.996Z,2.30
2018-06-18T08:57:07.796Z,2.30
2018-06-18T08:59:41.537Z,2.23
2018-06-18T09:02:09.837Z,2.20
2018-06-18T09:04:43.465Z,2.20
2018-06-18T09:07:16.744Z,2.47
2018-06-18T09:09:45.673Z,2.33
2018-06-18T09:12:13.989Z,2.37
2018-06-18T09:14:42.297Z,1.70
2018-06-18T09:17:10.604Z,2.03
2018-06-18T09:19:38.918Z,2.43
2018-06-18T09:22:07.209Z,2.13
2018-06-18T09:24:35.566Z,2.13
2018-06-18T09:27:09.273Z,2.23
2018-06-18T09:29:37.601Z,2.10
2018-06-18T09:32:10.204Z,2.20
2018-06-18T09:34:38.462Z,1.50
2018-06-18T09:37:06.761Z,1.90
2018-06-18T09:39:35.184Z,1.80
2018-06-18T09:42:03.868Z,1.80
2018-06-18T09:44:32.182Z,1.90
2018-06-18T09:47:00.602Z,1.70
2018-06-18T09:49:34.104Z,2.00
2018-06-18T09:52:07.969Z,1.90
2018-06-18T09:54:41.784Z,1.50
2018-06-18T09:57:24.281Z,2.10
2018-06-18T09:59:58.345Z,1.87
2018-06-18T10:02:27.485Z,2.10
2018-06-18T10:04:56.777Z,2.10
2018-06-18T10:07:25.252Z,2.40
2018-06-18T10:09:53.945Z,2.00
2018-06-18T10:12:22.265Z,1.93
2018-06-18T10:14:50.580Z,1.83
2018-06-18T10:17:19.676Z,1.90
2018-06-18T10:19:48.024Z,2.03
2018-06-18T10:22:16.533Z,1.90
2018-06-18T10:24:44.857Z,1.73
2018-06-18T10:27:13.159Z,1.83
2018-06-18T10:29:41.496Z,1.90
2018-06-18T10:32:15.313Z,1.90
2018-06-18T10:34:48.924Z,2.47
2018-06-18T10:37:22.605Z,2.73
2018-06-18T10:39:56.391Z,2.00
2018-06-18T10:42:30.065Z,2.60
2018-06-18T10:44:58.381Z,2.57
2018-06-18T10:47:26.701Z,2.67
2018-06-18T10:49:55.441Z,2.40
2018-06-18T10:52:23.737Z,2.43
2018-06-18T10:54:52.109Z,2.47
2018-06-18T10:57:20.413Z,2.67
2018-06-18T10:59:48.740Z,2.33
2018-06-18T11:02:17.069Z,2.90
2018-06-18T11:05:03.038Z,2.70
2018-06-18T11:07:32.135Z,2.40
2018-06-18T11:10:00.500Z,2.20
2018-06-18T11:12:28.825Z,2.50
2018-06-18T11:14:57.141Z,2.53
2018-06-18T11:17:30.853Z,2.50
2018-06-18T11:20:04.641Z,2.50
2018-06-18T11:22:38.284Z,2.73
2018-06-18T11:25:11.977Z,2.60
2018-06-18T11:27:40.314Z,2.47
2018-06-18T11:30:09.073Z,2.47
2018-06-18T11:32:37.252Z,2.80
2018-06-18T11:35:05.569Z,2.70
2018-06-18T11:37:33.860Z,2.67
2018-06-18T11:40:02.230Z,2.60
2018-06-18T11:42:30.522Z,2.40
2018-06-18T11:44:58.833Z,2.60
2018-06-18T11:47:27.144Z,2.70
2018-06-18T11:49:55.739Z,2.80
2018-06-18T11:52:24.045Z,2.80
2018-06-18T11:54:52.379Z,3.27
2018-06-18T11:57:20.690Z,3.40
2018-06-18T11:59:54.409Z,3.47
2018-06-18T12:02:28.285Z,3.77
2018-06-18T12:05:02.101Z,3.73
2018-06-18T12:07:35.703Z,3.43
2018-06-18T12:10:04.101Z,3.67
2018-06-18T12:12:32.494Z,3.00
2018-06-18T12:15:00.812Z,2.90
2018-06-18T12:17:29.146Z,2.97
2018-06-18T12:19:57.470Z,2.67
2018-06-18T12:22:25.818Z,2.80
2018-06-18T12:24:54.174Z,2.23
2018-06-18T12:27:25.581Z,3.00
2018-06-18T12:29:53.878Z,2.87
2018-06-18T12:32:22.184Z,3.50
2018-06-18T12:34:50.477Z,3.83
2018-06-18T12:37:18.789Z,3.20
2018-06-18T12:39:47.984Z,3.00
2018-06-18T12:42:16.393Z,2.87
2018-06-18T12:44:50.332Z,2.90
2018-06-18T12:47:24.113Z,2.50
2018-06-18T12:49:57.860Z,2.47
2018-06-18T12:52:31.517Z,2.60
2018-06-18T12:55:05.137Z,2.60
2018-06-18T12:57:33.473Z,2.40
2018-06-18T13:00:01.781Z,2.57
2018-06-18T13:02:43.760Z,2.70
2018-06-18T13:05:12.055Z,2.97
2018-06-18T13:07:40.368Z,2.37
2018-06-18T13:10:08.731Z,2.50
2018-06-18T13:12:37.029Z,3.00
2018-06-18T13:15:05.337Z,2.23
2018-06-18T13:17:33.657Z,2.50
2018-06-18T13:20:01.969Z,1.97
2018-06-18T13:22:30.333Z,2.10
2018-06-18T13:24:58.645Z,1.80
2018-06-18T13:27:32.258Z,2.00
2018-06-18T13:30:00.573Z,1.80
2018-06-18T13:32:28.916Z,1.87
2018-06-18T13:34:57.214Z,2.03
2018-06-18T13:37:30.767Z,1.73
2018-06-18T13:40:04.378Z,2.00
2018-06-18T13:42:38.018Z,2.10
2018-06-18T13:45:11.594Z,2.20
2018-06-18T13:47:45.174Z,1.93
2018-06-18T13:50:13.486Z,2.10
2018-06-18T13:52:41.956Z,1.90
2018-06-18T13:55:10.109Z,1.93
2018-06-18T13:57:38.430Z,2.00
2018-06-18T14:00:08.057Z,3.23
2018-06-18T14:02:36.380Z,4.40
2018-06-18T14:05:04.748Z,3.60
2018-06-18T14:07:33.082Z,3.20
2018-06-18T14:10:01.381Z,5.30
2018-06-18T14:12:29.741Z,2.40
2018-06-18T14:14:58.049Z,4.13
2018-06-18T14:17:26.374Z,3.00
2018-06-18T14:20:00.157Z,3.47
2018-06-18T14:22:28.541Z,3.90
2018-06-18T14:24:56.860Z,2.50
2018-06-18T14:27:25.193Z,4.13
2018-06-18T14:29:58.874Z,2.67
2018-06-18T14:33:35.462Z,2.30
2018-06-18T14:36:09.179Z,2.80
2018-06-18T14:38:42.837Z,2.50
2018-06-18T14:41:11.129Z,3.20
2018-06-18T14:43:39.472Z,2.47
2018-06-18T14:46:07.865Z,2.20
2018-06-18T14:48:36.228Z,2.17
2018-06-18T14:51:04.468Z,3.00
2018-06-18T14:53:32.793Z,3.40
2018-06-18T14:56:12.778Z,2.87
2018-06-18T14:58:42.757Z,2.70
2018-06-18T15:01:11.057Z,2.73
2018-06-18T15:03:40.096Z,3.13
2018-06-18T15:06:08.362Z,3.07
2018-06-18T15:08:36.690Z,3.10
2018-06-18T15:11:05.037Z,2.57
2018-06-18T15:13:33.377Z,2.43
2018-06-18T15:16:07.230Z,2.57
2018-06-18T15:18:35.573Z,2.53
2018-06-18T15:21:04.570Z,3.03
2018-06-18T15:23:32.856Z,2.60
2018-06-18T15:26:02.313Z,2.60
2018-06-18T15:28:30.630Z,3.07
2018-06-18T15:30:58.946Z,2.10
2018-06-18T15:33:27.293Z,2.47
2018-06-18T15:35:55.601Z,2.10
2018-06-18T15:38:23.949Z,2.57
2018-06-18T15:40:52.236Z,1.87
2018-06-18T15:43:20.557Z,2.43
2018-06-18T15:45:48.844Z,2.70
2018-06-18T15:48:17.145Z,2.10
2018-06-18T15:50:45.437Z,2.20
2018-06-18T15:53:13.750Z,2.37
2018-06-18T15:55:42.076Z,2.00
2018-06-18T15:58:10.376Z,2.20
2018-06-18T16:00:39.005Z,2.03
2018-06-18T16:03:07.298Z,2.00
2018-06-18T16:05:35.623Z,1.80
2018-06-18T16:08:03.929Z,2.17
2018-06-18T16:10:32.239Z,1.83
2018-06-18T16:13:00.597Z,2.07
2018-06-18T16:15:28.905Z,1.90
2018-06-18T16:17:57.252Z,1.57
2018-06-18T16:20:25.524Z,1.70
2018-06-18T16:22:54.150Z,1.83
2018-06-18T16:25:22.465Z,2.50
2018-06-18T16:27:50.758Z,2.20
2018-06-18T16:30:19.088Z,2.50
2018-06-18T16:32:47.381Z,1.77
2018-06-18T16:35:15.708Z,2.40
2018-06-18T16:37:44.001Z,1.60
2018-06-18T16:40:12.357Z,2.00
2018-06-18T16:42:40.387Z,1.77
2018-06-18T16:45:08.737Z,1.83
2018-06-18T16:47:37.066Z,1.77
2018-06-18T16:50:05.641Z,1.87
2018-06-18T16:52:33.964Z,1.73
2018-06-18T16:55:02.285Z,2.13
2018-06-18T16:57:30.689Z,2.00
2018-06-18T16:59:59.009Z,1.60
2018-06-18T17:02:27.340Z,1.80
2018-06-18T17:04:55.665Z,1.93
2018-06-18T17:07:23.956Z,1.77
2018-06-18T17:09:52.320Z,1.80
2018-06-18T17:12:20.689Z,1.90
2018-06-18T17:14:49.029Z,1.90
2018-06-18T17:17:17.341Z,1.80
2018-06-18T17:19:45.664Z,2.10
2018-06-18T17:22:13.968Z,1.83
2018-06-18T17:24:42.297Z,1.93
2018-06-18T17:27:10.620Z,1.90
2018-06-18T17:29:38.961Z,2.30
2018-06-18T17:32:07.262Z,2.20
2018-06-18T17:34:35.601Z,1.83
2018-06-18T17:37:03.910Z,2.13
2018-06-18T17:39:32.230Z,1.90
2018-06-18T17:42:00.665Z,2.37
2018-06-18T17:44:29.001Z,1.97
2018-06-18T17:46:57.310Z,2.00
2018-06-18T17:49:25.669Z,1.60
2018-06-18T17:51:54.336Z,1.80
2018-06-18T17:54:22.708Z,1.87
2018-06-18T17:56:51.033Z,1.80
2018-06-18T17:59:19.335Z,1.97
2018-06-18T18:01:47.661Z,2.07
2018-06-18T18:04:15.988Z,2.27
2018-06-18T18:06:44.470Z,2.37
2018-06-18T18:09:12.750Z,1.70
2018-06-18T18:11:41.086Z,1.90
2018-06-18T18:14:09.654Z,1.40
2018-06-18T18:16:38.141Z,1.73
2018-06-18T18:19:06.479Z,1.60
2018-06-18T18:21:34.810Z,1.77
2018-06-18T18:24:03.154Z,1.60
2018-06-18T18:26:31.578Z,1.43
2018-06-18T18:28:59.921Z,1.63
2018-06-18T18:31:28.297Z,1.70
2018-06-18T18:33:56.613Z,1.60
2018-06-18T18:36:24.938Z,1.80
2018-06-18T18:38:53.229Z,1.87
2018-06-18T18:41:21.566Z,1.77
2018-06-18T18:43:49.876Z,2.20
2018-06-18T18:46:18.218Z,1.93
2018-06-18T18:48:46.536Z,2.00
2018-06-18T18:51:14.890Z,2.10
2018-06-18T18:53:43.193Z,2.20
2018-06-18T18:56:22.901Z,2.30
2018-06-18T18:59:02.682Z,1.97
2018-06-18T19:01:31.016Z,1.97
2018-06-18T19:04:01.812Z,2.37
2018-06-18T19:06:30.141Z,2.33
2018-06-18T19:08:58.451Z,1.90
2018-06-18T19:11:26.863Z,2.10
2018-06-18T19:13:55.101Z,2.30
2018-06-18T19:16:23.463Z,2.03
2018-06-18T19:18:55.544Z,2.50
2018-06-18T19:21:23.893Z,1.90
2018-06-18T19:23:52.203Z,2.60
2018-06-18T19:26:20.525Z,2.10
2018-06-18T19:28:48.878Z,2.50
2018-06-18T19:31:22.747Z,2.20
2018-06-18T19:34:03.548Z,2.10
2018-06-18T19:36:31.857Z,2.03
2018-06-18T19:39:00.147Z,2.30
2018-06-18T19:41:28.469Z,2.70
2018-06-18T19:43:56.786Z,2.50
2018-06-18T19:46:31.173Z,2.40
2018-06-18T19:49:05.636Z,2.20
2018-06-18T19:51:33.970Z,2.30
2018-06-18T19:54:02.400Z,2.60
2018-06-18T19:56:30.768Z,2.47
2018-06-18T19:58:59.049Z,2.43
2018-06-18T20:01:27.345Z,2.80
2018-06-18T20:03:55.652Z,2.80
2018-06-18T20:06:23.954Z,2.97
2018-06-18T20:08:52.260Z,2.97
2018-06-18T20:11:20.547Z,3.00
2018-06-18T20:13:48.852Z,3.10
2018-06-18T20:16:17.165Z,2.80
2018-06-18T20:18:45.485Z,3.33
2018-06-18T20:21:13.788Z,2.97
2018-06-18T20:23:42.089Z,3.10
2018-06-18T20:26:13.385Z,3.67
2018-06-18T20:28:41.696Z,3.33
2018-06-18T20:31:09.993Z,3.50
2018-06-18T20:33:39.984Z,3.73
2018-06-18T20:36:10.689Z,3.60
2018-06-18T20:38:39.005Z,3.93
2018-06-18T20:41:08.053Z,3.60
2018-06-18T20:43:45.039Z,3.53
2018-06-18T20:46:13.324Z,3.60
2018-06-18T20:48:41.632Z,3.80
2018-06-18T20:51:09.963Z,3.50
2018-06-18T20:53:38.380Z,4.10
2018-06-18T20:56:06.689Z,4.00
2018-06-18T20:58:35.004Z,3.73
2018-06-18T21:01:03.392Z,3.43
2018-06-18T21:03:31.709Z,3.77
2018-06-18T21:06:00.177Z,4.00
2018-06-18T21:08:28.517Z,4.23
2018-06-18T21:10:56.872Z,4.27
2018-06-18T21:13:25.209Z,3.80
2018-06-18T21:15:53.528Z,4.00
2018-06-18T21:18:21.858Z,4.23
2018-06-18T21:20:50.934Z,4.40
2018-06-18T21:23:19.287Z,4.57
2018-06-18T21:25:47.604Z,4.30
2018-06-18T21:28:15.982Z,4.67
2018-06-18T21:30:44.245Z,4.30
2018-06-18T21:33:12.569Z,5.00
2018-06-18T21:35:40.912Z,4.80
2018-06-18T21:38:09.241Z,4.77
2018-06-18T21:40:37.544Z,4.43
2018-06-18T21:43:05.901Z,5.00
2018-06-18T21:45:34.198Z,4.80
2018-06-18T21:48:02.518Z,4.97
2018-06-18T21:50:30.810Z,5.20
2018-06-18T21:52:59.133Z,5.07
2018-06-18T21:55:27.449Z,5.40
2018-06-18T21:57:55.805Z,5.20
2018-06-18T22:00:34.242Z,5.03
2018-06-18T22:03:02.557Z,5.70
2018-06-18T22:05:30.869Z,5.37
2018-06-18T22:07:59.216Z,4.87
2018-06-18T22:10:27.528Z,5.73
2018-06-18T22:12:55.849Z,5.40
2018-06-18T22:15:24.193Z,5.30
2018-06-18T22:17:52.490Z,4.97
2018-06-18T22:20:20.880Z,5.37
2018-06-18T22:22:49.359Z,5.10
2018-06-18T22:25:17.670Z,5.53
2018-06-18T22:27:45.988Z,5.63
2018-06-18T22:30:14.329Z,5.80
2018-06-18T22:32:42.666Z,5.87
2018-06-18T22:35:11.008Z,5.63
2018-06-18T22:37:39.288Z,5.30
2018-06-18T22:40:08.565Z,5.23
2018-06-18T22:42:36.883Z,5.63
2018-06-18T22:45:07.075Z,5.73
2018-06-18T22:47:35.386Z,5.80
2018-06-18T22:50:03.745Z,5.90
2018-06-18T22:52:32.053Z,5.07
2018-06-18T22:55:00.370Z,5.80
2018-06-18T22:57:28.698Z,5.83
2018-06-18T22:59:57.061Z,6.00
2018-06-18T23:02:28.549Z,6.13
2018-06-18T23:04:56.872Z,5.73
2018-06-18T23:07:25.168Z,6.10
2018-06-18T23:09:53.536Z,6.63
2018-06-18T23:12:24.941Z,6.80
2018-06-18T23:14:53.285Z,6.83
2018-06-18T23:17:21.636Z,6.77
2018-06-18T23:19:49.960Z,7.30
2018-06-18T23:22:18.264Z,6.77
2018-06-18T23:24:46.581Z,6.10
2018-06-18T23:27:14.877Z,5.97
2018-06-18T23:29:43.189Z,5.87
2018-06-18T23:32:11.484Z,6.03
2018-06-18T23:34:39.792Z,6.30
2018-06-18T23:37:08.086Z,5.40
2018-06-18T23:39:36.400Z,6.13
2018-06-18T23:42:04.708Z,6.80
2018-06-18T23:44:33.039Z,6.10
2018-06-18T23:47:01.334Z,5.87
2018-06-18T23:49:29.681Z,6.33
2018-06-18T23:51:57.989Z,6.20
2018-06-18T23:54:26.345Z,6.80
2018-06-18T23:56:54.676Z,6.40
2018-06-18T23:59:22.988Z,6.53
